Time;durP1;ratioP1;P1;durP2;ratioP2;P2;SDS_P1;SDS_P2;PMS_P1;PMS_P2;Temp;Humidity;BMP_temperature;BMP_pressure;BME280_temperature;BME280_humidity;BME280_pressure;Samples;Min_cycle;Max_cycle;Signal;HPM_P1;HPM_P2
2024/01/13 00:01:31;;;;;;;102.28;34.65;;;;;;;;;;5002925;28;20410;-55
2024/01/13 00:03:57;;;;;;;93.05;33.08;;;;;;;;;;4998954;28;20073;-52
2024/01/13 00:06:23;;;;;;;85.70;31.27;;;;;;;;;;4999090;28;20045;-51
2024/01/13 00:08:49;;;;;;;98.05;32.10;;;;;;;;;;5002385;28;20053;-54
2024/01/13 00:11:15;;;;;;;92.88;30.50;;;;;;;;;;4999465;28;20069;-53
2024/01/13 00:13:41;;;;;;;93.43;30.60;;;;;;;;;;5004783;28;20049;-55
2024/01/13 00:16:08;;;;;;;98.32;35.00;;;;;;;;;;5001220;28;20053;-55
2024/01/13 00:18:34;;;;;;;107.60;32.47;;;;;;;;;;5000937;28;20061;-54
2024/01/13 00:21:00;;;;;;;102.13;34.05;;;;;;;;;;5005958;28;20050;-59
2024/01/13 00:23:26;;;;;;;103.18;34.58;;;;;;;;;;5004645;28;20045;-55
2024/01/13 00:25:52;;;;;;;95.85;35.35;;;;;;;;;;4999021;28;20042;-53
2024/01/13 00:28:19;;;;;;;99.32;34.83;;;;;;;;;;5008421;28;20042;-54
2024/01/13 00:30:45;;;;;;;95.80;32.17;;;;;;;;;;5002449;28;20434;-54
2024/01/13 00:33:11;;;;;;;97.50;31.85;;;;;;;;;;5021099;28;20042;-54
2024/01/13 00:35:37;;;;;;;90.15;31.73;;;;;;;;;;5003113;28;20108;-54
2024/01/13 00:38:03;;;;;;;99.18;32.92;;;;;;;;;;4998474;28;20050;-58
2024/01/13 00:40:30;;;;;;;88.45;32.10;;;;;;;;;;5000909;28;20049;-54
2024/01/13 00:42:56;;;;;;;97.97;31.92;;;;;;;;;;4996552;28;20114;-52
2024/01/13 00:45:23;;;;;;;90.53;29.50;;;;;;;;;;4985964;28;20038;-52
2024/01/13 00:47:49;;;;;;;89.68;32.42;;;;;;;;;;5003543;28;20064;-55
2024/01/13 00:50:15;;;;;;;97.10;31.98;;;;;;;;;;5002035;28;20058;-55
2024/01/13 00:52:41;;;;;;;89.53;30.00;;;;;;;;;;4986704;28;20042;-51
2024/01/13 00:55:08;;;;;;;88.15;30.95;;;;;;;;;;4988786;28;20055;-54
2024/01/13 00:57:34;;;;;;;92.30;33.42;;;;;;;;;;4998346;28;20044;-53
2024/01/13 01:00:00;;;;;;;96.85;32.80;;;;;;;;;;4998695;28;20034;-52
2024/01/13 01:02:27;;;;;;;94.32;33.53;;;;;;;;;;4997895;28;20050;-54
2024/01/13 01:04:53;;;;;;;92.53;32.72;;;;;;;;;;4995390;28;20045;-53
2024/01/13 01:07:19;;;;;;;94.50;32.80;;;;;;;;;;4997123;28;20054;-52
2024/01/13 01:09:46;;;;;;;93.35;31.98;;;;;;;;;;5006395;28;20049;-53
2024/01/13 01:12:12;;;;;;;96.68;33.30;;;;;;;;;;4999190;28;20038;-54
2024/01/13 01:14:38;;;;;;;104.53;36.22;;;;;;;;;;4998295;28;20050;-53
2024/01/13 01:17:05;;;;;;;99.35;34.70;;;;;;;;;;5002061;28;20057;-54
2024/01/13 01:19:31;;;;;;;93.63;33.97;;;;;;;;;;5001777;28;20030;-55
2024/01/13 01:21:57;;;;;;;108.65;35.63;;;;;;;;;;5002898;28;20057;-55
2024/01/13 01:24:24;;;;;;;97.10;35.97;;;;;;;;;;5015508;28;20038;-52
2024/01/13 01:26:50;;;;;;;103.38;37.60;;;;;;;;;;5016036;28;20042;-51
2024/01/13 01:29:16;;;;;;;104.05;37.45;;;;;;;;;;4997050;28;20042;-54
2024/01/13 01:31:43;;;;;;;98.38;35.53;;;;;;;;;;4999724;28;20049;-55
2024/01/13 01:34:09;;;;;;;107.75;37.65;;;;;;;;;;5002079;28;20042;-52
2024/01/13 01:36:35;;;;;;;103.55;38.40;;;;;;;;;;5018012;28;20053;-52
2024/01/13 01:39:02;;;;;;;93.65;35.15;;;;;;;;;;4999356;28;20042;-53
2024/01/13 01:41:28;;;;;;;98.78;34.53;;;;;;;;;;4992108;28;20046;-53
2024/01/13 01:43:54;;;;;;;99.65;35.90;;;;;;;;;;4999658;28;20043;-53
2024/01/13 01:46:23;;;;;;;94.63;33.60;;;;;;;;;;4998763;28;20074;-55
2024/01/13 01:48:56;;;;;;;101.17;36.20;;;;;;;;;;5003089;28;20052;-55
2024/01/13 01:51:22;;;;;;;90.10;33.47;;;;;;;;;;4999279;28;20053;-55
2024/01/13 01:53:50;;;;;;;91.32;34.63;;;;;;;;;;5004760;28;20053;-52
2024/01/13 01:56:23;;;;;;;95.28;34.45;;;;;;;;;;4999576;28;20058;-54
2024/01/13 01:58:52;;;;;;;87.63;32.63;;;;;;;;;;5006779;28;20049;-53
2024/01/13 02:01:19;;;;;;;97.77;35.53;;;;;;;;;;5000906;28;20061;-51
2024/01/13 02:03:46;;;;;;;104.40;35.58;;;;;;;;;;5002524;28;20053;-50
2024/01/13 02:06:13;;;;;;;98.82;34.92;;;;;;;;;;5007858;28;20430;-54
2024/01/13 02:08:40;;;;;;;101.22;35.20;;;;;;;;;;5001777;28;20041;-51
2024/01/13 02:11:07;;;;;;;92.90;32.50;;;;;;;;;;5001956;28;20054;-55
2024/01/13 02:13:33;;;;;;;91.45;33.60;;;;;;;;;;5003010;28;20049;-55
2024/01/13 02:15:59;;;;;;;90.15;33.95;;;;;;;;;;5000018;28;20051;-53
2024/01/13 02:18:26;;;;;;;92.40;33.50;;;;;;;;;;5005354;28;20050;-54
2024/01/13 02:20:52;;;;;;;99.32;36.60;;;;;;;;;;5007699;28;20057;-52
2024/01/13 02:23:18;;;;;;;98.75;37.58;;;;;;;;;;5003465;28;20034;-55
2024/01/13 02:25:45;;;;;;;92.10;35.20;;;;;;;;;;5009208;28;20034;-53
2024/01/13 02:28:11;;;;;;;105.10;35.22;;;;;;;;;;5004954;28;20052;-53
2024/01/13 02:30:37;;;;;;;99.18;34.25;;;;;;;;;;5006335;28;20505;-51
2024/01/13 02:33:03;;;;;;;100.05;34.92;;;;;;;;;;5004512;28;20029;-50
2024/01/13 02:35:29;;;;;;;97.70;35.78;;;;;;;;;;5005445;28;20050;-51
2024/01/13 02:37:56;;;;;;;102.65;35.53;;;;;;;;;;5001827;28;20042;-56
2024/01/13 02:40:22;;;;;;;91.00;32.95;;;;;;;;;;5001710;28;20050;-53
2024/01/13 02:42:48;;;;;;;100.60;35.38;;;;;;;;;;5003387;28;20033;-55
2024/01/13 02:45:14;;;;;;;88.65;33.88;;;;;;;;;;5000183;28;20425;-55
2024/01/13 02:47:43;;;;;;;98.97;34.25;;;;;;;;;;5025542;28;20628;-56
2024/01/13 02:50:10;;;;;;;93.85;33.85;;;;;;;;;;5001233;28;20053;-55
2024/01/13 02:52:37;;;;;;;106.72;34.03;;;;;;;;;;5002246;28;20064;-54
2024/01/13 02:55:03;;;;;;;96.47;34.17;;;;;;;;;;5003687;28;20516;-54
2024/01/13 02:57:29;;;;;;;100.72;34.28;;;;;;;;;;5002978;28;20046;-54
2024/01/13 02:59:55;;;;;;;102.25;34.97;;;;;;;;;;5003924;28;20053;-54
2024/01/13 03:02:22;;;;;;;101.50;34.47;;;;;;;;;;4998614;28;20042;-54
2024/01/13 03:04:48;;;;;;;101.65;34.30;;;;;;;;;;5000832;28;20030;-56
2024/01/13 03:07:14;;;;;;;98.03;32.78;;;;;;;;;;4999762;28;20065;-54
2024/01/13 03:09:40;;;;;;;99.80;34.65;;;;;;;;;;5002394;28;20038;-55
2024/01/13 03:12:06;;;;;;;100.78;33.75;;;;;;;;;;4999623;28;20062;-55
2024/01/13 03:14:33;;;;;;;95.30;33.78;;;;;;;;;;4998551;28;20764;-56
2024/01/13 03:16:59;;;;;;;102.80;33.60;;;;;;;;;;5002504;28;20057;-56
2024/01/13 03:19:25;;;;;;;92.43;31.25;;;;;;;;;;4996882;28;20501;-54
2024/01/13 03:21:51;;;;;;;94.47;32.08;;;;;;;;;;5004762;28;20041;-55
2024/01/13 03:24:17;;;;;;;92.88;31.92;;;;;;;;;;5002059;28;20520;-55
2024/01/13 03:26:43;;;;;;;98.65;33.45;;;;;;;;;;5004936;28;20445;-52
2024/01/13 03:29:09;;;;;;;86.78;32.25;;;;;;;;;;4995998;28;20425;-55
2024/01/13 03:31:35;;;;;;;95.85;31.58;;;;;;;;;;5003625;28;20057;-56
2024/01/13 03:34:01;;;;;;;93.22;31.73;;;;;;;;;;5003556;28;20034;-55
2024/01/13 03:36:27;;;;;;;101.80;33.95;;;;;;;;;;5002464;28;20061;-56
2024/01/13 03:38:54;;;;;;;94.90;32.47;;;;;;;;;;4997444;28;20073;-54
2024/01/13 03:41:20;;;;;;;94.03;32.90;;;;;;;;;;5000490;28;20034;-55
2024/01/13 03:43:46;;;;;;;100.68;35.75;;;;;;;;;;5003897;28;20048;-56
2024/01/13 03:46:12;;;;;;;94.68;33.67;;;;;;;;;;5002038;28;20046;-53
2024/01/13 03:48:38;;;;;;;102.70;33.53;;;;;;;;;;5002681;28;20049;-56
2024/01/13 03:51:05;;;;;;;106.47;33.92;;;;;;;;;;5002806;28;20062;-54
2024/01/13 03:53:31;;;;;;;100.82;32.20;;;;;;;;;;4999922;28;20540;-54
2024/01/13 03:55:58;;;;;;;95.22;33.33;;;;;;;;;;4995090;28;20049;-56
2024/01/13 03:58:24;;;;;;;92.75;32.30;;;;;;;;;;5001395;28;20034;-53
2024/01/13 04:00:50;;;;;;;102.00;33.30;;;;;;;;;;4999763;28;20053;-54
2024/01/13 04:03:16;;;;;;;102.18;32.33;;;;;;;;;;5002802;28;20046;-56
2024/01/13 04:05:42;;;;;;;105.50;33.05;;;;;;;;;;5001227;28;20050;-53
2024/01/13 04:08:08;;;;;;;107.13;33.55;;;;;;;;;;5002258;28;20045;-50
2024/01/13 04:10:34;;;;;;;102.18;33.13;;;;;;;;;;5003068;28;20050;-52
2024/01/13 04:13:00;;;;;;;103.05;33.60;;;;;;;;;;4999325;28;20045;-54
2024/01/13 04:15:26;;;;;;;98.07;33.28;;;;;;;;;;5000237;28;20068;-53
2024/01/13 04:17:53;;;;;;;111.68;32.45;;;;;;;;;;5002525;28;20053;-49
2024/01/13 04:20:19;;;;;;;104.32;33.47;;;;;;;;;;5002608;28;20046;-55
2024/01/13 04:22:45;;;;;;;105.82;33.70;;;;;;;;;;5008956;28;20038;-53
2024/01/13 04:25:11;;;;;;;105.05;32.60;;;;;;;;;;4995851;28;20135;-57
2024/01/13 04:27:37;;;;;;;105.90;32.47;;;;;;;;;;5000974;28;20045;-56
2024/01/13 04:30:04;;;;;;;104.32;32.78;;;;;;;;;;4998708;28;20049;-54
2024/01/13 04:32:30;;;;;;;101.45;32.35;;;;;;;;;;5001590;28;20046;-55
2024/01/13 04:34:56;;;;;;;119.55;34.30;;;;;;;;;;4999461;28;20037;-55
2024/01/13 04:37:22;;;;;;;110.25;34.30;;;;;;;;;;4997021;28;20043;-56
2024/01/13 04:39:48;;;;;;;97.05;30.20;;;;;;;;;;4995631;28;20053;-53
2024/01/13 04:42:14;;;;;;;107.38;34.15;;;;;;;;;;4996088;28;20054;-52
2024/01/13 04:44:40;;;;;;;97.88;31.52;;;;;;;;;;5002285;28;20052;-53
2024/01/13 04:47:06;;;;;;;103.45;31.88;;;;;;;;;;5001864;28;20038;-53
2024/01/13 04:49:32;;;;;;;94.47;29.75;;;;;;;;;;4995693;28;20046;-55
2024/01/13 04:51:59;;;;;;;102.07;31.52;;;;;;;;;;4997224;28;20056;-53
2024/01/13 04:54:25;;;;;;;103.63;32.05;;;;;;;;;;4996676;28;20046;-55
2024/01/13 04:56:51;;;;;;;98.75;33.13;;;;;;;;;;4999830;28;20042;-53
2024/01/13 04:59:17;;;;;;;99.28;32.70;;;;;;;;;;4996635;28;20046;-52
2024/01/13 05:01:43;;;;;;;92.60;31.58;;;;;;;;;;4999076;28;20055;-53
2024/01/13 05:04:09;;;;;;;93.57;31.65;;;;;;;;;;4999390;28;20038;-51
2024/01/13 05:06:35;;;;;;;99.38;30.52;;;;;;;;;;5001105;28;20501;-53
2024/01/13 05:09:02;;;;;;;100.90;31.92;;;;;;;;;;4996429;28;20041;-53
2024/01/13 05:11:28;;;;;;;97.53;31.75;;;;;;;;;;4993587;28;20140;-53
2024/01/13 05:13:54;;;;;;;95.28;31.63;;;;;;;;;;4998615;28;20045;-55
2024/01/13 05:16:21;;;;;;;113.03;32.90;;;;;;;;;;4995964;28;20053;-53
2024/01/13 05:18:47;;;;;;;101.95;32.28;;;;;;;;;;4998767;28;20046;-55
2024/01/13 05:21:13;;;;;;;93.20;32.17;;;;;;;;;;5000459;28;20046;-55
2024/01/13 05:23:39;;;;;;;94.32;31.25;;;;;;;;;;5001456;28;20058;-54
2024/01/13 05:26:05;;;;;;;110.88;35.92;;;;;;;;;;5001983;28;20045;-53
2024/01/13 05:28:31;;;;;;;102.00;33.63;;;;;;;;;;5002390;28;20581;-56
2024/01/13 05:30:57;;;;;;;92.43;32.83;;;;;;;;;;5002501;28;20050;-54
2024/01/13 05:33:23;;;;;;;97.82;32.38;;;;;;;;;;4998713;28;20054;-52
2024/01/13 05:35:49;;;;;;;99.75;34.78;;;;;;;;;;4996424;28;20056;-52
2024/01/13 05:38:15;;;;;;;104.45;32.10;;;;;;;;;;4995947;28;20038;-52
2024/01/13 05:40:44;;;;;;;112.28;33.65;;;;;;;;;;4998847;28;20042;-55
2024/01/13 05:43:10;;;;;;;97.22;32.15;;;;;;;;;;4999282;28;20049;-50
2024/01/13 05:45:37;;;;;;;96.25;34.63;;;;;;;;;;5000095;28;20049;-55
2024/01/13 05:48:03;;;;;;;109.75;32.70;;;;;;;;;;5002164;28;20520;-55
2024/01/13 05:50:29;;;;;;;99.50;32.95;;;;;;;;;;4996135;28;20053;-54
2024/01/13 05:52:56;;;;;;;100.32;32.40;;;;;;;;;;5002836;28;20044;-55
2024/01/13 05:55:23;;;;;;;98.65;32.13;;;;;;;;;;4998916;28;20513;-53
2024/01/13 05:57:49;;;;;;;95.55;31.42;;;;;;;;;;4995895;28;20434;-52
2024/01/13 06:00:15;;;;;;;96.05;31.67;;;;;;;;;;4998946;28;20045;-53
2024/01/13 06:02:43;;;;;;;107.40;34.00;;;;;;;;;;5001042;28;20060;-54
2024/01/13 06:05:09;;;;;;;106.22;31.80;;;;;;;;;;4995215;28;20057;-55
2024/01/13 06:07:37;;;;;;;108.28;34.00;;;;;;;;;;5003223;28;20509;-57
2024/01/13 06:10:04;;;;;;;95.55;29.77;;;;;;;;;;4993078;28;20045;-56
2024/01/13 06:12:30;;;;;;;95.53;31.65;;;;;;;;;;5001669;28;20490;-55
2024/01/13 06:14:57;;;;;;;98.75;31.23;;;;;;;;;;4998534;28;20058;-57
2024/01/13 06:17:23;;;;;;;101.07;32.67;;;;;;;;;;5002815;28;20061;-56
2024/01/13 06:19:49;;;;;;;100.32;31.90;;;;;;;;;;5001798;28;20044;-57
2024/01/13 06:22:15;;;;;;;92.88;31.60;;;;;;;;;;5002906;28;20046;-56
2024/01/13 06:24:41;;;;;;;95.30;29.25;;;;;;;;;;4998690;28;20497;-57
2024/01/13 06:27:07;;;;;;;105.00;30.15;;;;;;;;;;4994473;28;20038;-56
2024/01/13 06:29:33;;;;;;;103.65;31.08;;;;;;;;;;5002334;28;20046;-57
2024/01/13 06:31:59;;;;;;;89.20;28.98;;;;;;;;;;5001266;28;20046;-56
2024/01/13 06:34:25;;;;;;;93.57;29.08;;;;;;;;;;5003254;28;20041;-57
2024/01/13 06:36:51;;;;;;;88.10;28.05;;;;;;;;;;5001925;28;20520;-55
2024/01/13 06:39:17;;;;;;;100.03;31.20;;;;;;;;;;4999110;28;20046;-57
2024/01/13 06:41:43;;;;;;;100.18;31.58;;;;;;;;;;5010959;28;20042;-57
2024/01/13 06:44:09;;;;;;;97.63;30.52;;;;;;;;;;5000949;28;20536;-57
2024/01/13 06:46:36;;;;;;;91.32;30.45;;;;;;;;;;5018810;28;20512;-57
2024/01/13 06:49:02;;;;;;;102.13;30.38;;;;;;;;;;5001235;28;20049;-56
2024/01/13 06:51:28;;;;;;;98.13;29.67;;;;;;;;;;5002333;28;20417;-57
2024/01/13 06:53:54;;;;;;;98.35;30.35;;;;;;;;;;5007010;28;20477;-56
2024/01/13 06:56:21;;;;;;;98.72;31.33;;;;;;;;;;4998842;28;20049;-57
2024/01/13 06:58:47;;;;;;;87.35;28.05;;;;;;;;;;4998202;28;20576;-56
2024/01/13 07:01:14;;;;;;;92.97;29.10;;;;;;;;;;5000350;28;20049;-58
2024/01/13 07:03:42;;;;;;;97.90;30.05;;;;;;;;;;4998610;28;20261;-56
2024/01/13 07:06:08;;;;;;;95.22;27.90;;;;;;;;;;5001219;28;20507;-57
2024/01/13 07:08:34;;;;;;;89.85;27.67;;;;;;;;;;5000090;28;20528;-56
2024/01/13 07:11:00;;;;;;;86.80;27.05;;;;;;;;;;4999780;28;20030;-57
2024/01/13 07:13:27;;;;;;;98.05;29.23;;;;;;;;;;5005992;28;20041;-57
2024/01/13 07:15:53;;;;;;;87.40;28.95;;;;;;;;;;4999421;28;20653;-57
2024/01/13 07:18:20;;;;;;;92.30;28.55;;;;;;;;;;5001424;28;20042;-57
2024/01/13 07:20:46;;;;;;;110.07;31.45;;;;;;;;;;5002610;28;20072;-57
2024/01/13 07:23:12;;;;;;;109.20;32.30;;;;;;;;;;5002510;28;20042;-57
2024/01/13 07:25:38;;;;;;;94.30;27.08;;;;;;;;;;5015927;28;20046;-56
2024/01/13 07:28:04;;;;;;;97.43;29.05;;;;;;;;;;5004838;28;20034;-58
2024/01/13 07:30:31;;;;;;;111.40;30.77;;;;;;;;;;4998156;28;20049;-58
2024/01/13 07:32:57;;;;;;;103.07;32.72;;;;;;;;;;4999263;28;20076;-53
2024/01/13 07:35:23;;;;;;;103.35;30.95;;;;;;;;;;5011494;28;20053;-58
2024/01/13 07:37:49;;;;;;;100.78;31.67;;;;;;;;;;4998111;28;20655;-58
2024/01/13 07:40:17;;;;;;;101.75;29.70;;;;;;;;;;5001280;28;20041;-58
2024/01/13 07:42:43;;;;;;;97.07;29.15;;;;;;;;;;4997255;28;20037;-55
2024/01/13 07:45:09;;;;;;;100.80;30.40;;;;;;;;;;4993491;28;20058;-56
2024/01/13 07:47:35;;;;;;;91.30;29.25;;;;;;;;;;4995254;28;20022;-58
2024/01/13 07:50:03;;;;;;;95.18;27.65;;;;;;;;;;4996003;28;20053;-57
2024/01/13 07:52:29;;;;;;;86.97;26.38;;;;;;;;;;4995589;28;20536;-57
2024/01/13 07:54:55;;;;;;;93.47;29.55;;;;;;;;;;4992793;28;20427;-57
2024/01/13 07:57:22;;;;;;;89.50;26.33;;;;;;;;;;4998745;28;20042;-56
2024/01/13 07:59:48;;;;;;;90.22;27.98;;;;;;;;;;4996704;28;20052;-56
2024/01/13 08:02:14;;;;;;;100.53;27.30;;;;;;;;;;5001734;28;20030;-56
2024/01/13 08:04:42;;;;;;;93.18;27.50;;;;;;;;;;5001110;28;20375;-56
2024/01/13 08:07:09;;;;;;;97.60;28.52;;;;;;;;;;4997742;28;20490;-57
2024/01/13 08:09:35;;;;;;;82.75;25.77;;;;;;;;;;5002077;28;20046;-57
2024/01/13 08:12:01;;;;;;;78.50;25.25;;;;;;;;;;5004290;28;20038;-58
2024/01/13 08:14:27;;;;;;;91.97;28.00;;;;;;;;;;4997792;28;20425;-57
2024/01/13 08:16:53;;;;;;;91.10;25.67;;;;;;;;;;5002833;28;20041;-56
2024/01/13 08:19:19;;;;;;;95.47;29.33;;;;;;;;;;4999339;28;20053;-56
2024/01/13 08:21:45;;;;;;;89.13;24.60;;;;;;;;;;5000421;28;20057;-57
2024/01/13 08:24:12;;;;;;;88.70;25.02;;;;;;;;;;5005550;28;20058;-55
2024/01/13 08:26:39;;;;;;;81.55;26.65;;;;;;;;;;5003264;28;20046;-54
2024/01/13 08:29:05;;;;;;;86.47;25.23;;;;;;;;;;4997363;28;20053;-57
2024/01/13 08:31:31;;;;;;;81.50;24.80;;;;;;;;;;4997025;28;20029;-54
2024/01/13 08:33:57;;;;;;;81.95;24.50;;;;;;;;;;4997816;28;20050;-56
2024/01/13 08:36:23;;;;;;;84.25;25.50;;;;;;;;;;4996563;28;20045;-56
2024/01/13 08:38:49;;;;;;;84.65;24.08;;;;;;;;;;5000282;28;20134;-56
2024/01/13 08:41:16;;;;;;;82.05;25.42;;;;;;;;;;4999087;28;20034;-56
2024/01/13 08:43:42;;;;;;;82.63;23.90;;;;;;;;;;4996907;28;20054;-55
2024/01/13 08:46:11;;;;;;;76.78;25.50;;;;;;;;;;4993710;28;20057;-56
2024/01/13 08:48:37;;;;;;;88.00;25.60;;;;;;;;;;4996486;28;20056;-58
2024/01/13 08:51:03;;;;;;;83.07;24.77;;;;;;;;;;4997476;28;20050;-57
2024/01/13 08:53:29;;;;;;;90.03;25.95;;;;;;;;;;4995711;28;20038;-55
2024/01/13 08:55:55;;;;;;;77.65;25.77;;;;;;;;;;4995031;28;20626;-57
2024/01/13 08:58:22;;;;;;;94.95;27.77;;;;;;;;;;4991853;28;20057;-57
2024/01/13 09:00:48;;;;;;;147.07;50.08;;;;;;;;;;4993223;28;20054;-58
2024/01/13 09:03:14;;;;;;;142.88;46.42;;;;;;;;;;4994216;28;20044;-55
2024/01/13 09:05:40;;;;;;;87.68;27.83;;;;;;;;;;5005360;28;20536;-57
2024/01/13 09:08:06;;;;;;;100.13;31.17;;;;;;;;;;4995021;28;20038;-57
2024/01/13 09:10:32;;;;;;;87.22;27.02;;;;;;;;;;4994097;28;20060;-56
2024/01/13 09:12:58;;;;;;;88.53;28.65;;;;;;;;;;4997973;28;20061;-58
2024/01/13 09:15:26;;;;;;;75.88;28.15;;;;;;;;;;4995712;28;20060;-55
2024/01/13 09:17:52;;;;;;;74.90;25.20;;;;;;;;;;4997232;28;20042;-55
2024/01/13 09:20:18;;;;;;;73.90;23.52;;;;;;;;;;4998884;28;20061;-54
2024/01/13 09:22:44;;;;;;;81.88;25.83;;;;;;;;;;4991893;28;20065;-56
2024/01/13 09:25:10;;;;;;;87.43;28.27;;;;;;;;;;5000272;28;20046;-56
2024/01/13 09:27:36;;;;;;;84.70;26.73;;;;;;;;;;5004014;28;20042;-56
2024/01/13 09:30:02;;;;;;;74.38;23.70;;;;;;;;;;4996780;28;20054;-55
2024/01/13 09:32:29;;;;;;;80.35;25.02;;;;;;;;;;4998343;28;20036;-58
2024/01/13 09:34:56;;;;;;;72.93;24.95;;;;;;;;;;4996835;28;20494;-57
2024/01/13 09:37:23;;;;;;;71.78;22.80;;;;;;;;;;4996691;28;20441;-57
2024/01/13 09:39:49;;;;;;;94.03;27.98;;;;;;;;;;4994580;28;20030;-57
2024/01/13 09:42:27;;;;;;;76.13;22.35;;;;;;;;;;4996263;28;20045;-55
2024/01/13 09:44:53;;;;;;;77.18;23.10;;;;;;;;;;4996006;28;20060;-57
2024/01/13 09:47:19;;;;;;;80.50;26.15;;;;;;;;;;4997318;28;20029;-56
2024/01/13 09:49:47;;;;;;;83.25;25.40;;;;;;;;;;4998468;28;20037;-57
2024/01/13 09:52:14;;;;;;;87.25;24.73;;;;;;;;;;4998527;28;20418;-57
2024/01/13 09:54:46;;;;;;;86.28;26.27;;;;;;;;;;4998827;28;20057;-57
2024/01/13 09:57:12;;;;;;;93.05;26.10;;;;;;;;;;4996251;28;20039;-57
2024/01/13 09:59:40;;;;;;;84.30;27.52;;;;;;;;;;4997482;28;20061;-57
2024/01/13 10:02:12;;;;;;;93.10;26.33;;;;;;;;;;4999775;28;20050;-56
2024/01/13 10:04:40;;;;;;;95.35;26.73;;;;;;;;;;5005528;28;20060;-57
2024/01/13 10:07:08;;;;;;;86.57;24.90;;;;;;;;;;4997547;28;20069;-58
2024/01/13 10:09:34;;;;;;;94.90;25.95;;;;;;;;;;5000277;28;20045;-57
2024/01/13 10:12:04;;;;;;;90.03;26.90;;;;;;;;;;5006173;28;20072;-57
2024/01/13 10:14:30;;;;;;;97.50;27.52;;;;;;;;;;5000577;28;20054;-57
2024/01/13 10:17:01;;;;;;;90.97;27.60;;;;;;;;;;5000111;28;20501;-56
2024/01/13 10:19:27;;;;;;;100.38;28.45;;;;;;;;;;5003979;28;20117;-57
2024/01/13 10:21:54;;;;;;;93.63;27.23;;;;;;;;;;4999965;28;20045;-57
2024/01/13 10:24:20;;;;;;;93.35;27.45;;;;;;;;;;5002644;28;20037;-57
2024/01/13 10:26:46;;;;;;;89.60;25.88;;;;;;;;;;5002299;28;20046;-56
2024/01/13 10:29:13;;;;;;;98.38;27.85;;;;;;;;;;4997341;28;20034;-57
2024/01/13 10:31:39;;;;;;;89.25;26.60;;;;;;;;;;4998663;28;20041;-58
2024/01/13 10:34:10;;;;;;;94.57;28.65;;;;;;;;;;5000523;28;20052;-56
2024/01/13 10:36:36;;;;;;;99.95;26.77;;;;;;;;;;5002056;28;20033;-58
2024/01/13 10:39:02;;;;;;;100.60;27.05;;;;;;;;;;4998318;28;20053;-58
2024/01/13 10:41:29;;;;;;;68.07;19.73;;;;;;;;;;5000378;28;20070;-58
2024/01/13 10:43:56;;;;;;;77.85;23.33;;;;;;;;;;4993021;28;20065;-57
2024/01/13 10:46:24;;;;;;;92.53;26.55;;;;;;;;;;5000968;28;20037;-58
2024/01/13 10:48:59;;;;;;;91.70;28.13;;;;;;;;;;5000789;28;20118;-56
2024/01/13 10:51:48;;;;;;;93.95;28.02;;;;;;;;;;4996560;28;20046;-55
2024/01/13 10:54:16;;;;;;;95.82;27.60;;;;;;;;;;5000519;28;20037;-56
2024/01/13 10:56:43;;;;;;;94.70;27.73;;;;;;;;;;4999820;28;20601;-56
2024/01/13 10:59:10;;;;;;;84.07;23.77;;;;;;;;;;4993347;28;20062;-56
2024/01/13 11:01:38;;;;;;;84.75;26.08;;;;;;;;;;4999866;28;20073;-55
2024/01/13 11:04:04;;;;;;;91.90;28.23;;;;;;;;;;5000251;28;20038;-55
2024/01/13 11:06:31;;;;;;;91.35;26.38;;;;;;;;;;4996053;28;20077;-55
2024/01/13 11:08:57;;;;;;;91.00;27.30;;;;;;;;;;5000595;28;20496;-56
2024/01/13 11:11:28;;;;;;;85.35;23.90;;;;;;;;;;4995831;28;20029;-57
2024/01/13 11:14:19;;;;;;;65.90;20.92;;;;;;;;;;5000422;28;20049;-56
2024/01/13 11:16:47;;;;;;;69.53;20.23;;;;;;;;;;5001137;28;20406;-57
2024/01/13 11:19:13;;;;;;;66.07;21.58;;;;;;;;;;4999989;28;20049;-55
2024/01/13 11:21:41;;;;;;;69.78;21.92;;;;;;;;;;4995876;28;20050;-57
2024/01/13 11:24:13;;;;;;;71.53;22.10;;;;;;;;;;5005371;28;20042;-54
2024/01/13 11:26:53;;;;;;;80.47;27.38;;;;;;;;;;4998488;28;20050;-55
2024/01/13 11:29:20;;;;;;;82.20;25.17;;;;;;;;;;5007366;28;20506;-58
2024/01/13 11:31:53;;;;;;;78.43;23.60;;;;;;;;;;5000447;28;20399;-55
2024/01/13 11:34:19;;;;;;;92.20;35.47;;;;;;;;;;4999532;28;20390;-56
2024/01/13 11:36:52;;;;;;;186.98;100.95;;;;;;;;;;4999877;28;20410;-56
2024/01/13 11:39:20;;;;;;;87.90;29.23;;;;;;;;;;4997492;28;20054;-56
2024/01/13 11:41:49;;;;;;;286.25;110.57;;;;;;;;;;5002336;28;20053;-56
2024/01/13 11:44:34;;;;;;;75.55;23.67;;;;;;;;;;4993984;28;20034;-56
2024/01/13 11:47:00;;;;;;;63.03;19.00;;;;;;;;;;4999038;28;20037;-55
2024/01/13 11:49:36;;;;;;;58.35;18.35;;;;;;;;;;4996593;28;20038;-57
2024/01/13 11:52:04;;;;;;;68.00;18.67;;;;;;;;;;4996514;28;20059;-55
2024/01/13 11:54:32;;;;;;;58.67;19.08;;;;;;;;;;4999175;28;20053;-56
2024/01/13 11:56:59;;;;;;;65.85;20.70;;;;;;;;;;4997454;28;20421;-56
2024/01/13 11:59:26;;;;;;;69.05;21.48;;;;;;;;;;4998731;28;20034;-58
2024/01/13 12:01:53;;;;;;;63.30;18.02;;;;;;;;;;5004790;28;20046;-57
2024/01/13 12:04:20;;;;;;;63.13;20.45;;;;;;;;;;5000808;28;20038;-55
2024/01/13 12:06:50;;;;;;;75.00;21.20;;;;;;;;;;4998409;28;20057;-57
2024/01/13 12:09:22;;;;;;;67.85;21.42;;;;;;;;;;4997596;28;20050;-59
2024/01/13 12:11:53;;;;;;;61.17;20.30;;;;;;;;;;5000421;28;20049;-57
2024/01/13 12:14:24;;;;;;;58.13;17.85;;;;;;;;;;5003186;28;20053;-57
2024/01/13 12:16:50;;;;;;;65.03;18.90;;;;;;;;;;5002282;28;20408;-58
2024/01/13 12:19:16;;;;;;;58.30;20.35;;;;;;;;;;4999354;28;20038;-57
2024/01/13 12:21:42;;;;;;;65.60;19.52;;;;;;;;;;4999438;28;20030;-57
2024/01/13 12:24:08;;;;;;;58.88;19.05;;;;;;;;;;5000130;28;20034;-57
2024/01/13 12:26:35;;;;;;;53.38;15.45;;;;;;;;;;4997159;28;20057;-58
2024/01/13 12:29:01;;;;;;;76.43;21.40;;;;;;;;;;5000674;28;20041;-54
2024/01/13 12:31:27;;;;;;;68.63;19.88;;;;;;;;;;4997371;28;20037;-58
2024/01/13 12:33:53;;;;;;;65.15;19.30;;;;;;;;;;4998421;28;20042;-58
2024/01/13 12:36:19;;;;;;;65.97;20.15;;;;;;;;;;4997799;28;20518;-59
2024/01/13 12:38:47;;;;;;;74.63;20.83;;;;;;;;;;5001665;28;20049;-58
2024/01/13 12:41:13;;;;;;;62.92;21.63;;;;;;;;;;4998389;28;20030;-58
2024/01/13 12:43:39;;;;;;;65.13;21.23;;;;;;;;;;4996442;28;20041;-58
2024/01/13 12:46:06;;;;;;;60.05;21.67;;;;;;;;;;4998338;28;20057;-55
2024/01/13 12:48:33;;;;;;;47.00;15.23;;;;;;;;;;4994162;28;20046;-51
2024/01/13 12:51:10;;;;;;;62.25;18.70;;;;;;;;;;4997058;28;20442;-56
2024/01/13 12:53:38;;;;;;;65.10;19.92;;;;;;;;;;4998088;28;20057;-59
2024/01/13 12:56:04;;;;;;;107.85;32.45;;;;;;;;;;4992891;28;20045;-58
2024/01/13 12:58:31;;;;;;;79.57;23.75;;;;;;;;;;4993732;28;20054;-57
2024/01/13 13:00:57;;;;;;;89.40;27.65;;;;;;;;;;4998691;28;20030;-58
2024/01/13 13:03:23;;;;;;;76.18;23.75;;;;;;;;;;5000217;28;20042;-57
2024/01/13 13:05:50;;;;;;;65.03;22.90;;;;;;;;;;4991521;28;20498;-58
2024/01/13 13:08:17;;;;;;;58.45;20.67;;;;;;;;;;4997516;28;20066;-57
2024/01/13 13:10:43;;;;;;;58.35;20.20;;;;;;;;;;4995522;28;20057;-56
2024/01/13 13:13:09;;;;;;;63.00;21.42;;;;;;;;;;4995257;28;20038;-58
2024/01/13 13:15:36;;;;;;;63.78;21.10;;;;;;;;;;4992314;28;20042;-58
2024/01/13 13:18:03;;;;;;;70.72;23.58;;;;;;;;;;4996285;28;20521;-57
2024/01/13 13:20:29;;;;;;;61.38;20.23;;;;;;;;;;4997753;28;20452;-58
2024/01/13 13:22:56;;;;;;;72.00;23.10;;;;;;;;;;4995189;28;20038;-58
2024/01/13 13:25:22;;;;;;;68.38;23.45;;;;;;;;;;4991835;28;20529;-58
2024/01/13 13:27:49;;;;;;;64.28;21.23;;;;;;;;;;4996156;28;20053;-60
2024/01/13 13:30:16;;;;;;;65.53;19.95;;;;;;;;;;4990774;28;20046;-60
2024/01/13 13:32:42;;;;;;;68.55;21.65;;;;;;;;;;4989377;28;20054;-59
2024/01/13 13:35:09;;;;;;;67.10;21.73;;;;;;;;;;4996218;28;20041;-56
2024/01/13 13:37:36;;;;;;;70.97;23.45;;;;;;;;;;5002370;28;20149;-57
2024/01/13 13:40:02;;;;;;;72.55;26.15;;;;;;;;;;5001138;28;20045;-59
2024/01/13 13:42:29;;;;;;;88.00;26.33;;;;;;;;;;4992870;28;20034;-59
2024/01/13 13:44:56;;;;;;;90.80;29.33;;;;;;;;;;4993971;28;20623;-60
2024/01/13 13:47:22;;;;;;;127.50;38.65;;;;;;;;;;5001967;28;20061;-58
2024/01/13 13:49:49;;;;;;;152.23;49.05;;;;;;;;;;4994740;28;20438;-58
2024/01/13 13:52:15;;;;;;;148.45;46.30;;;;;;;;;;4996304;28;20045;-58
2024/01/13 13:54:41;;;;;;;112.30;36.88;;;;;;;;;;4998740;28;20037;-60
2024/01/13 13:57:07;;;;;;;82.90;29.20;;;;;;;;;;4998316;28;20422;-59
2024/01/13 13:59:34;;;;;;;84.93;28.00;;;;;;;;;;4992515;28;20046;-59
2024/01/13 14:02:00;;;;;;;85.40;27.25;;;;;;;;;;4997691;28;20053;-58
2024/01/13 14:04:27;;;;;;;72.30;25.25;;;;;;;;;;4999759;28;20062;-59
2024/01/13 14:06:53;;;;;;;74.70;25.05;;;;;;;;;;4997341;28;20037;-58
2024/01/13 14:09:20;;;;;;;81.60;28.10;;;;;;;;;;4993114;28;20120;-60
2024/01/13 14:11:46;;;;;;;83.45;26.58;;;;;;;;;;4997708;28;20498;-58